Airfield :
LOGIN :

Register | Disclaimer

   EN    FR    IT 

 










Legend :    VFR   Marginal VFR   IFR   Intensive IFR   Very Intensive IFR
Visi :
Ceiling :
>= 8 km
>= 3000ft
5 to 8 km
1000 to 3000 ft
1500m to 5 km
500 to 1000 ft
800 to 1500m
200 to 500 ft
< 800m
< 200 ft
Symbols :   Thunderstorms  Fog  Heavy snow  Heavy precipitations  Wind > 20 kt
SIGMETs :     Misc.  Thunderstorms  Icing  Turbulence  Mountain Waves  Volcanic Ashes







- Airport Elevation : 19 ft
- IATA code : LCY
- Download approach charts


EGLC - London City

CURRENT METAR :
  • 200320Z AUTO 24008KT 9999 BKN033 BKN041 09/05 Q1019

EXPIRED METARs :
  • 200250Z AUTO 23007KT 9999 BKN043 08/04 Q1019
  • 200220Z AUTO 22006KT 9999 BKN016 OVC045 08/03 Q1020
  • 200150Z AUTO 24006KT 9999 BKN018 OVC047 08/03 Q1020
  • 200120Z AUTO 24006KT 9999 BKN020 BKN034 OVC047 07/03 Q1021
  • 200050Z AUTO 24004KT 200V280 9999 SCT038 OVC045 07/02 Q1021

TAF TAF EGLC
Valid from the 20 at 03:00 until the 20 at 12:00 UTC


200204Z 2003/2012 22009KT 9999 SCT015
TEMPO 2003/2008 8000 -RA BKN014
PROB30
TEMPO 2003/2006 RA BKN009
PROB30
TEMPO 2008/2012 24015G25KT
ATIS : +44 20 7646 0224
No reported NOTAMs for that airfield.



MET'MAP, your aeronautical weather chart ! - Copyright ORBIFLY December 2007 - Disclaimer

ORBIFLY MET'MAP TEAM :

Programming & Development : Alexandra Zaïnal
Concept & Development : Baudouin d'Aumeries
Co-Development & Prog : Marc-Olivier Méhu
Technical & hardware support : Manuel Goepfert

Contact : metmap@orbifly.com




SOURCES & CREDITS :

   NOAA